Time;durP1;ratioP1;P1;durP2;ratioP2;P2;SDS_P1;SDS_P2;PMS_P1;PMS_P2;Temp;Humidity;BMP_temperature;BMP_pressure;BME280_temperature;BME280_humidity;BME280_pressure;Samples;Min_cycle;Max_cycle;Signal;HPM_P1;HPM_P2
2022/07/25 00:02:16;;;;;;;1999.90;999.90;;;22.00;99.90;;;;;;5121445;27;20047;-76
2022/07/25 00:04:41;;;;;;;1999.90;999.90;;;22.10;99.90;;;;;;5114605;28;20509;-76
2022/07/25 00:07:07;;;;;;;1999.90;999.90;;;22.10;99.90;;;;;;5119935;27;20038;-76
2022/07/25 00:09:33;;;;;;;1999.90;999.90;;;22.10;99.90;;;;;;5112931;27;20032;-76
2022/07/25 00:12:01;;;;;;;1999.90;999.90;;;22.20;99.90;;;;;;5098085;28;20414;-76
2022/07/25 00:14:26;;;;;;;1999.90;999.90;;;22.20;99.90;;;;;;5111932;28;20446;-76
2022/07/25 00:16:52;;;;;;;1999.90;999.90;;;22.20;99.90;;;;;;5110624;28;20253;-76
2022/07/25 00:19:17;;;;;;;1999.90;999.90;;;22.20;99.90;;;;;;5136798;27;20047;-76
2022/07/25 00:21:43;;;;;;;1999.90;999.90;;;22.20;99.90;;;;;;5105698;27;20051;-76
2022/07/25 00:24:09;;;;;;;1999.90;999.90;;;22.20;99.90;;;;;;5106435;27;20043;-76
2022/07/25 00:26:35;;;;;;;1999.90;999.90;;;22.20;99.90;;;;;;5108232;27;20085;-76
2022/07/25 00:29:01;;;;;;;1999.90;999.90;;;22.20;99.90;;;;;;5122846;27;20520;-76
2022/07/25 00:31:26;;;;;;;1999.90;999.90;;;22.20;99.90;;;;;;5110680;27;20059;-76
2022/07/25 00:33:52;;;;;;;1999.90;999.90;;;22.20;99.90;;;;;;5122967;27;20212;-76
2022/07/25 00:36:18;;;;;;;1999.90;999.90;;;22.10;99.90;;;;;;5099283;27;20041;-76
2022/07/25 00:38:44;;;;;;;1999.90;999.90;;;22.10;99.90;;;;;;5106975;27;20541;-76
2022/07/25 00:41:10;;;;;;;1999.90;999.90;;;22.00;99.90;;;;;;5096366;27;20138;-76
2022/07/25 00:43:35;;;;;;;1999.90;999.90;;;22.00;99.90;;;;;;5129807;27;20050;-76
2022/07/25 00:46:01;;;;;;;1999.90;999.90;;;22.00;99.90;;;;;;5103962;27;20042;-76
2022/07/25 00:48:28;;;;;;;1999.90;999.90;;;22.00;99.90;;;;;;5117561;27;20043;-76
2022/07/25 00:50:55;;;;;;;1999.90;999.90;;;22.00;99.90;;;;;;5108131;27;20045;-76
2022/07/25 00:53:21;;;;;;;1999.90;999.90;;;22.00;99.90;;;;;;5127185;27;20047;-76
2022/07/25 00:55:47;;;;;;;1999.90;999.90;;;22.00;99.90;;;;;;5125253;27;20507;-76
2022/07/25 00:58:12;;;;;;;1999.90;999.90;;;21.90;99.90;;;;;;5100612;27;20038;-76
2022/07/25 01:00:38;;;;;;;1999.90;999.90;;;21.90;99.90;;;;;;5120461;27;20486;-76
2022/07/25 01:03:04;;;;;;;1999.90;999.90;;;21.90;99.90;;;;;;5106326;27;20035;-76
2022/07/25 01:05:30;;;;;;;1999.90;999.90;;;21.90;99.90;;;;;;5121584;27;20528;-76
2022/07/25 01:07:56;;;;;;;1999.90;999.90;;;21.90;99.90;;;;;;5121050;27;20034;-76
2022/07/25 01:10:22;;;;;;;1999.90;999.90;;;21.80;99.90;;;;;;5118900;27;20035;-76
2022/07/25 01:12:51;;;;;;;1999.90;999.90;;;21.80;99.90;;;;;;5097327;27;20061;-76
2022/07/25 01:15:18;;;;;;;1999.90;999.90;;;21.70;99.90;;;;;;5102151;27;20058;-76
2022/07/25 01:17:44;;;;;;;1999.90;999.90;;;21.70;99.90;;;;;;5110709;27;20542;-76
2022/07/25 01:20:17;;;;;;;1999.90;999.90;;;21.70;99.90;;;;;;5097556;27;20125;-76
2022/07/25 01:22:43;;;;;;;1999.90;999.90;;;21.70;99.90;;;;;;5105919;27;20059;-75
2022/07/25 01:25:10;;;;;;;1999.90;999.90;;;21.70;99.90;;;;;;5099134;27;20051;-76
2022/07/25 01:27:36;;;;;;;1999.90;999.90;;;21.60;99.90;;;;;;5113850;27;20043;-76
2022/07/25 01:30:04;;;;;;;1999.90;999.90;;;21.60;99.90;;;;;;5126154;27;20047;-76
2022/07/25 01:32:30;;;;;;;1999.90;999.90;;;21.60;99.90;;;;;;5125309;27;20083;-76
2022/07/25 01:34:55;;;;;;;1999.90;999.90;;;21.50;99.90;;;;;;5113424;27;20041;-76
2022/07/25 01:37:21;;;;;;;1999.90;999.90;;;21.50;99.90;;;;;;5116823;27;20120;-76
2022/07/25 01:39:47;;;;;;;1999.90;999.90;;;21.40;99.90;;;;;;5121748;27;20414;-76
2022/07/25 01:42:12;;;;;;;1999.90;999.90;;;21.40;99.90;;;;;;5103403;27;20085;-76
2022/07/25 01:44:38;;;;;;;1999.90;999.90;;;21.40;99.90;;;;;;5103706;27;20091;-76
2022/07/25 01:47:03;;;;;;;1999.90;999.90;;;21.30;99.90;;;;;;5106077;27;20451;-76
2022/07/25 01:49:29;;;;;;;1999.90;999.90;;;21.30;99.90;;;;;;5100070;27;20049;-77
2022/07/25 01:51:55;;;;;;;1999.90;999.90;;;21.30;99.90;;;;;;5105183;27;20057;-76
2022/07/25 01:54:20;;;;;;;1999.90;999.90;;;21.30;99.90;;;;;;5098648;27;20112;-76
2022/07/25 01:56:46;;;;;;;1999.90;999.90;;;21.20;99.90;;;;;;5102121;27;20046;-76
2022/07/25 01:59:12;;;;;;;1999.90;999.90;;;21.20;99.90;;;;;;5095081;27;20123;-77
2022/07/25 02:01:37;;;;;;;1999.90;999.90;;;21.10;99.90;;;;;;5100490;27;20121;-76
2022/07/25 02:04:03;;;;;;;1999.90;999.90;;;21.10;99.90;;;;;;5122016;27;20138;-76
2022/07/25 02:06:29;;;;;;;1999.90;999.90;;;21.10;99.90;;;;;;5124982;27;20039;-76
2022/07/25 02:08:54;;;;;;;1999.90;999.90;;;21.10;99.90;;;;;;5096651;27;20038;-76
2022/07/25 02:11:20;;;;;;;1999.90;999.90;;;21.10;99.90;;;;;;5093819;27;20042;-77
2022/07/25 02:13:45;;;;;;;1999.90;999.90;;;21.00;99.90;;;;;;5114746;27;20145;-77
2022/07/25 02:16:12;;;;;;;1999.90;999.90;;;20.90;99.90;;;;;;5107983;27;20050;-76
2022/07/25 02:18:38;;;;;;;1999.90;999.90;;;20.90;99.90;;;;;;5121827;27;20038;-76
2022/07/25 02:21:08;;;;;;;1999.90;999.90;;;20.80;99.90;;;;;;5096900;28;20071;-76
2022/07/25 02:23:34;;;;;;;1999.90;999.90;;;20.80;99.90;;;;;;5115054;27;20045;-76
2022/07/25 02:26:00;;;;;;;1999.90;999.90;;;20.70;99.90;;;;;;5122403;27;20051;-76
2022/07/25 02:28:25;;;;;;;1999.90;999.90;;;20.70;99.90;;;;;;5116033;27;20697;-76
2022/07/25 02:30:51;;;;;;;1999.90;999.90;;;20.70;99.90;;;;;;5125404;27;20470;-76
2022/07/25 02:33:17;;;;;;;1999.90;999.90;;;20.70;99.90;;;;;;5111297;27;20019;-76
2022/07/25 02:35:42;;;;;;;1999.90;999.90;;;20.80;99.90;;;;;;5115954;27;20515;-76
2022/07/25 02:38:08;;;;;;;1999.90;999.90;;;20.80;99.90;;;;;;5121331;27;20043;-76
2022/07/25 02:40:34;;;;;;;1999.90;999.90;;;20.70;99.90;;;;;;5119902;27;20054;-77
2022/07/25 02:42:59;;;;;;;1999.90;999.90;;;20.70;99.90;;;;;;5122080;27;20043;-76
2022/07/25 02:45:25;;;;;;;1999.90;999.90;;;20.60;99.90;;;;;;5115636;27;20078;-76
2022/07/25 02:47:51;;;;;;;1999.90;999.90;;;20.60;99.90;;;;;;5119846;27;20133;-76
2022/07/25 02:50:16;;;;;;;1999.90;999.90;;;20.50;99.90;;;;;;5112609;27;20061;-76
2022/07/25 02:52:42;;;;;;;1999.90;999.90;;;20.50;99.90;;;;;;5108111;27;20039;-76
2022/07/25 02:55:10;;;;;;;1999.90;999.90;;;20.40;99.90;;;;;;5120480;27;20133;-76
2022/07/25 02:57:35;;;;;;;1999.90;999.90;;;20.30;99.90;;;;;;5120684;27;20038;-76
2022/07/25 03:00:02;;;;;;;1999.90;999.90;;;20.30;99.90;;;;;;5113709;27;20034;-77
2022/07/25 03:02:27;;;;;;;1999.90;999.90;;;20.20;99.90;;;;;;5107601;27;20047;-77
2022/07/25 03:04:53;;;;;;;1999.90;999.90;;;20.10;99.90;;;;;;5110321;27;20054;-77
2022/07/25 03:07:19;;;;;;;1999.90;999.90;;;20.10;99.90;;;;;;5135341;27;20102;-76
2022/07/25 03:09:44;;;;;;;1999.90;999.90;;;20.10;99.90;;;;;;5127717;27;20053;-76
2022/07/25 03:12:10;;;;;;;1999.90;999.90;;;20.00;99.90;;;;;;5126887;27;20039;-76
2022/07/25 03:14:36;;;;;;;1999.90;999.90;;;19.90;99.90;;;;;;5121117;27;20054;-76
2022/07/25 03:17:01;;;;;;;1999.90;999.90;;;19.90;99.90;;;;;;5119462;27;20030;-77
2022/07/25 03:19:27;;;;;;;1999.90;999.90;;;19.90;99.90;;;;;;5122377;27;20492;-76
2022/07/25 03:21:53;;;;;;;1999.90;999.90;;;19.90;99.90;;;;;;5100124;28;20087;-76
2022/07/25 03:24:18;;;;;;;1999.90;999.90;;;19.80;99.90;;;;;;5126661;27;20042;-77
2022/07/25 03:26:44;;;;;;;1999.90;999.90;;;19.80;99.90;;;;;;5115854;27;20528;-76
2022/07/25 03:29:10;;;;;;;1999.90;999.90;;;19.80;99.90;;;;;;5121952;27;20046;-76
2022/07/25 03:31:36;;;;;;;1999.90;999.90;;;19.80;99.90;;;;;;5119344;27;20151;-76
2022/07/25 03:34:01;;;;;;;1999.90;999.90;;;19.70;99.90;;;;;;5113885;28;20044;-76
2022/07/25 03:36:27;;;;;;;1999.90;999.90;;;19.70;99.90;;;;;;5110105;27;20394;-76
2022/07/25 03:38:55;;;;;;;1999.90;999.90;;;19.70;99.90;;;;;;5102949;27;20054;-76
2022/07/25 03:41:21;;;;;;;1999.90;999.90;;;19.70;99.90;;;;;;5117122;27;20038;-76
2022/07/25 03:43:46;;;;;;;1999.90;999.90;;;19.70;99.90;;;;;;5119846;27;20485;-76
2022/07/25 03:46:12;;;;;;;1999.90;999.90;;;19.70;99.90;;;;;;5102774;27;20043;-76
2022/07/25 03:48:38;;;;;;;1999.90;999.90;;;19.60;99.90;;;;;;5125058;27;20039;-76
2022/07/25 03:51:03;;;;;;;1999.90;999.90;;;19.60;99.90;;;;;;5103379;27;20116;-76
2022/07/25 03:53:29;;;;;;;1999.90;999.90;;;19.60;99.90;;;;;;5118226;27;20065;-76
2022/07/25 03:55:55;;;;;;;1999.90;999.90;;;19.60;99.90;;;;;;5123777;27;20479;-76
2022/07/25 03:58:20;;;;;;;1999.90;999.90;;;19.60;99.90;;;;;;5132258;27;20067;-76
2022/07/25 04:00:47;;;;;;;1999.90;999.90;;;19.70;99.90;;;;;;5101189;27;20047;-76
2022/07/25 04:03:13;;;;;;;1999.90;999.90;;;19.60;99.90;;;;;;5106780;27;20151;-77
2022/07/25 04:05:39;;;;;;;1999.90;999.90;;;19.70;99.90;;;;;;5124278;27;20473;-76
2022/07/25 04:08:04;;;;;;;1999.90;999.90;;;19.80;99.90;;;;;;5123501;27;20039;-76
2022/07/25 04:10:30;;;;;;;1999.90;999.90;;;19.80;99.90;;;;;;5096314;27;20039;-76
2022/07/25 04:12:56;;;;;;;1999.90;999.90;;;19.80;99.90;;;;;;5109687;27;20037;-76
2022/07/25 04:15:21;;;;;;;1999.90;999.90;;;19.90;99.90;;;;;;5100691;27;20031;-76
2022/07/25 04:17:47;;;;;;;1999.90;999.90;;;19.90;99.90;;;;;;5106380;27;20047;-76
2022/07/25 04:20:12;;;;;;;1999.90;999.90;;;19.90;99.90;;;;;;5128448;27;20042;-76
2022/07/25 04:22:38;;;;;;;1999.90;999.90;;;20.00;99.90;;;;;;5123053;27;20053;-76
2022/07/25 04:25:05;;;;;;;1999.90;999.90;;;20.00;99.90;;;;;;5091259;27;20046;-76
2022/07/25 04:27:30;;;;;;;1999.90;999.90;;;20.00;99.90;;;;;;5108240;27;20039;-76
2022/07/25 04:29:56;;;;;;;1999.90;999.90;;;20.10;99.90;;;;;;5115716;27;20045;-76
2022/07/25 04:32:22;;;;;;;1999.90;999.90;;;20.10;99.90;;;;;;5124075;27;20045;-76
2022/07/25 04:34:47;;;;;;;1999.90;999.90;;;20.10;99.90;;;;;;5119933;27;20039;-77
2022/07/25 04:37:13;;;;;;;1999.90;999.90;;;20.10;99.90;;;;;;5103353;27;20498;-76
2022/07/25 04:39:38;;;;;;;1999.90;999.90;;;20.20;99.90;;;;;;5108068;27;20049;-76
2022/07/25 04:42:04;;;;;;;1999.90;999.90;;;20.20;99.90;;;;;;5119331;27;20050;-76
2022/07/25 04:44:29;;;;;;;1999.90;999.90;;;20.20;99.90;;;;;;5104616;27;20130;-76
2022/07/25 04:46:55;;;;;;;1999.90;999.90;;;20.30;99.90;;;;;;5123129;27;20405;-76
2022/07/25 04:49:21;;;;;;;1999.90;999.90;;;20.40;99.90;;;;;;5116198;27;20043;-77
2022/07/25 04:51:46;;;;;;;1999.90;999.90;;;20.30;99.90;;;;;;5121244;27;20045;-76
2022/07/25 04:54:12;;;;;;;1999.90;999.90;;;20.40;99.90;;;;;;5121917;27;20100;-77
2022/07/25 04:56:38;;;;;;;1999.90;999.90;;;20.40;99.90;;;;;;5113277;27;20072;-77
2022/07/25 04:59:03;;;;;;;1999.90;999.90;;;20.50;99.90;;;;;;5101751;27;20414;-76
2022/07/25 05:01:29;;;;;;;1999.90;999.90;;;20.50;99.90;;;;;;5103500;27;20042;-77
2022/07/25 05:03:54;;;;;;;1999.90;999.90;;;20.50;99.90;;;;;;5107136;27;20406;-77
2022/07/25 05:06:20;;;;;;;1999.90;999.90;;;20.60;99.90;;;;;;5096694;27;20054;-77
2022/07/25 05:08:46;;;;;;;1999.90;999.90;;;20.70;99.90;;;;;;5098954;27;20039;-76
2022/07/25 05:11:11;;;;;;;1999.90;999.90;;;20.70;99.90;;;;;;5120614;27;20524;-77
2022/07/25 05:13:37;;;;;;;1999.90;999.90;;;20.80;99.90;;;;;;5103456;27;20491;-76
2022/07/25 05:16:03;;;;;;;1999.90;999.90;;;20.80;99.90;;;;;;5105262;27;20079;-77
2022/07/25 05:18:28;;;;;;;1999.90;999.90;;;20.90;99.90;;;;;;5122377;27;20490;-77
2022/07/25 05:20:54;;;;;;;1999.90;999.90;;;20.90;99.90;;;;;;5120275;27;20043;-77
2022/07/25 05:23:20;;;;;;;1999.90;999.90;;;21.00;99.90;;;;;;5119719;27;20039;-77
2022/07/25 05:25:46;;;;;;;1999.90;999.90;;;21.00;99.90;;;;;;5096318;27;20131;-78
2022/07/25 05:28:13;;;;;;;1999.90;999.90;;;21.10;99.90;;;;;;5121652;27;20062;-77
2022/07/25 05:30:39;;;;;;;1999.90;999.90;;;21.20;99.90;;;;;;5103311;27;20035;-77
2022/07/25 05:33:04;;;;;;;1999.90;999.90;;;21.20;99.90;;;;;;5096558;27;20107;-77
2022/07/25 05:35:30;;;;;;;1999.90;999.90;;;21.20;99.90;;;;;;5097059;27;20087;-77
2022/07/25 05:37:56;;;;;;;1999.90;999.90;;;21.20;99.90;;;;;;5122892;27;20407;-77
2022/07/25 05:40:21;;;;;;;1999.90;999.90;;;21.20;99.90;;;;;;5112593;27;20122;-77
2022/07/25 05:42:47;;;;;;;1999.90;999.90;;;21.20;99.90;;;;;;5119332;27;20562;-77
2022/07/25 05:45:13;;;;;;;1999.90;999.90;;;21.20;99.90;;;;;;5109744;27;20051;-77
2022/07/25 05:47:38;;;;;;;1999.90;999.90;;;21.30;99.90;;;;;;5104035;27;20047;-76
2022/07/25 05:50:05;;;;;;;1999.90;999.90;;;21.30;99.90;;;;;;5103057;27;20679;-77
2022/07/25 05:52:31;;;;;;;1999.90;999.90;;;21.40;99.90;;;;;;5103097;27;20531;-77
2022/07/25 05:54:56;;;;;;;1999.90;999.90;;;21.50;99.90;;;;;;5099342;27;20035;-77
2022/07/25 05:57:22;;;;;;;1999.90;999.90;;;21.50;99.90;;;;;;5103016;27;20418;-77
2022/07/25 05:59:48;;;;;;;1999.90;999.90;;;21.60;99.90;;;;;;5098782;27;20532;-77
2022/07/25 06:02:13;;;;;;;1999.90;999.90;;;21.60;99.90;;;;;;5094974;27;20034;-77
2022/07/25 06:04:39;;;;;;;1999.90;999.90;;;21.70;99.90;;;;;;5113814;27;20563;-77
2022/07/25 06:07:04;;;;;;;1999.90;999.90;;;21.70;99.90;;;;;;5121248;27;20039;-75
2022/07/25 06:09:30;;;;;;;1999.90;999.90;;;21.80;99.90;;;;;;5101060;27;20395;-74
2022/07/25 06:11:56;;;;;;;1999.90;999.90;;;21.80;99.90;;;;;;5111101;27;20398;-74
2022/07/25 06:14:22;;;;;;;1999.90;999.90;;;21.90;99.90;;;;;;5104659;27;20038;-74
2022/07/25 06:16:47;;;;;;;1999.90;999.90;;;22.00;99.90;;;;;;5145796;27;20043;-74
2022/07/25 06:19:13;;;;;;;1999.90;999.90;;;22.10;99.90;;;;;;5127656;27;20035;-74
2022/07/25 06:21:40;;;;;;;1999.90;999.90;;;22.20;99.90;;;;;;5116774;27;20088;-74
2022/07/25 06:24:05;;;;;;;1999.90;999.90;;;22.30;99.90;;;;;;5118536;27;20102;-74
2022/07/25 06:26:31;;;;;;;1999.90;999.90;;;22.50;99.90;;;;;;5120758;27;20506;-74
2022/07/25 06:28:57;;;;;;;1999.90;999.90;;;22.70;99.90;;;;;;5143405;27;20038;-74
2022/07/25 06:31:22;;;;;;;1999.90;999.90;;;22.90;99.90;;;;;;5134668;27;20092;-74
2022/07/25 06:33:48;;;;;;;1999.90;999.90;;;23.00;99.90;;;;;;5122542;27;20047;-74
2022/07/25 06:36:14;;;;;;;1999.90;999.90;;;23.20;99.90;;;;;;5105943;27;20418;-75
2022/07/25 06:38:39;;;;;;;1999.90;999.90;;;23.40;99.90;;;;;;5087353;27;20058;-74
2022/07/25 06:41:05;;;;;;;1999.90;999.90;;;23.30;99.90;;;;;;5122319;27;20474;-74
2022/07/25 06:43:31;;;;;;;1999.90;999.90;;;23.20;99.90;;;;;;5136061;27;20110;-74
2022/07/25 06:45:56;;;;;;;1999.90;999.90;;;23.20;99.90;;;;;;5137664;27;20043;-74
2022/07/25 06:48:23;;;;;;;1999.90;999.90;;;23.30;99.90;;;;;;5137324;27;20039;-74
2022/07/25 06:50:49;;;;;;;1999.90;999.90;;;23.30;99.90;;;;;;5114207;27;20054;-74
2022/07/25 06:53:15;;;;;;;1999.90;999.90;;;23.20;99.90;;;;;;5124202;27;20042;-74
2022/07/25 06:55:40;;;;;;;1999.90;999.90;;;23.20;99.90;;;;;;5141921;27;20042;-74
2022/07/25 06:58:06;;;;;;;1999.90;999.90;;;23.20;99.90;;;;;;5122171;27;20054;-74
2022/07/25 07:00:32;;;;;;;1999.90;999.90;;;23.30;99.90;;;;;;5117769;27;20042;-74
2022/07/25 07:03:00;;;;;;;1999.90;999.90;;;23.40;99.90;;;;;;5090797;27;20039;-74
2022/07/25 07:05:28;;;;;;;1999.90;999.90;;;23.50;99.90;;;;;;5113915;27;20070;-74
2022/07/25 07:07:54;;;;;;;1999.90;999.90;;;23.60;99.90;;;;;;5096489;27;20384;-74
2022/07/25 07:10:21;;;;;;;1999.90;999.90;;;23.60;99.90;;;;;;5122071;27;20127;-74
2022/07/25 07:12:47;;;;;;;1999.90;999.90;;;23.60;99.90;;;;;;5106016;27;20454;-74
2022/07/25 07:15:13;;;;;;;1999.90;999.90;;;23.70;99.90;;;;;;5110299;27;20043;-75
2022/07/25 07:17:39;;;;;;;1999.90;999.90;;;23.70;99.90;;;;;;5112934;27;20551;-74
2022/07/25 07:20:06;;;;;;;1999.90;999.90;;;23.70;99.90;;;;;;5113312;27;20057;-74
2022/07/25 07:22:41;;;;;;;1999.90;999.90;;;23.70;99.90;;;;;;5099904;28;20525;-75
2022/07/25 07:25:07;;;;;;;1999.90;999.90;;;23.70;99.90;;;;;;5120109;28;20096;-74
2022/07/25 07:27:33;;;;;;;1999.90;999.90;;;23.80;99.90;;;;;;5109183;27;20150;-74
2022/07/25 07:29:58;;;;;;;1999.90;999.90;;;23.90;99.90;;;;;;5106219;27;20044;-74
2022/07/25 07:32:24;;;;;;;1999.90;999.90;;;24.40;99.90;;;;;;5100154;28;20031;-74
2022/07/25 07:34:49;;;;;;;1999.90;999.90;;;25.30;99.90;;;;;;5107034;27;20079;-74
2022/07/25 07:37:15;;;;;;;1999.90;999.90;;;25.80;99.90;;;;;;5107433;27;20047;-75
2022/07/25 07:39:41;;;;;;;1999.90;999.90;;;25.90;99.90;;;;;;5128596;27;20486;-75
2022/07/25 07:42:06;;;;;;;1999.90;999.90;;;25.70;99.90;;;;;;5114239;27;20122;-74
2022/07/25 07:44:32;;;;;;;1999.90;999.90;;;25.40;99.90;;;;;;5125032;27;20041;-74
2022/07/25 07:47:01;;;;;;;1999.90;999.90;;;25.30;99.90;;;;;;5125216;27;20046;-74
2022/07/25 07:49:28;;;;;;;1999.90;999.90;;;25.60;99.90;;;;;;5111738;27;20039;-74
2022/07/25 07:51:53;;;;;;;1999.90;999.90;;;25.80;99.90;;;;;;5128873;27;20482;-74
2022/07/25 07:57:03;;;;;;;1999.90;999.90;;;26.20;99.90;;;;;;5121022;27;20043;-75
2022/07/25 07:59:29;;;;;;;1999.90;999.90;;;26.20;99.90;;;;;;5124294;27;20413;-74
2022/07/25 08:01:55;;;;;;;1999.90;999.90;;;26.10;99.90;;;;;;5105382;27;20051;-74
2022/07/25 08:04:21;;;;;;;1999.90;999.90;;;25.90;99.90;;;;;;5101176;27;20443;-74
2022/07/25 08:06:46;;;;;;;1999.90;999.90;;;25.90;99.90;;;;;;5107747;27;20042;-74
2022/07/25 08:09:12;;;;;;;1999.90;999.90;;;25.90;99.90;;;;;;5123975;27;20034;-74
2022/07/25 08:11:38;;;;;;;1999.90;999.90;;;26.00;99.90;;;;;;5124291;27;20042;-74
2022/07/25 08:14:05;;;;;;;1999.90;999.90;;;25.90;99.90;;;;;;5109746;27;20107;-75
2022/07/25 08:16:32;;;;;;;1999.90;999.90;;;26.00;99.90;;;;;;5118144;27;20038;-74
2022/07/25 08:18:57;;;;;;;1999.90;999.90;;;26.10;99.90;;;;;;5125343;27;20115;-75
2022/07/25 08:21:23;;;;;;;1999.90;999.90;;;26.10;99.90;;;;;;5108357;27;20084;-75
2022/07/25 08:23:49;;;;;;;1999.90;999.90;;;26.00;99.60;;;;;;5101529;27;20511;-74
2022/07/25 08:26:15;;;;;;;1999.90;999.90;;;25.80;99.60;;;;;;5107689;27;20045;-75
2022/07/25 08:28:41;;;;;;;1999.90;999.90;;;25.60;99.70;;;;;;5102747;27;20038;-75
2022/07/25 08:31:06;;;;;;;1999.90;999.90;;;25.30;99.10;;;;;;5116931;27;20046;-74
2022/07/25 08:33:32;;;;;;;1999.90;999.90;;;25.00;98.90;;;;;;5098956;27;20491;-74
2022/07/25 08:35:58;;;;;;;1999.90;999.90;;;24.80;99.60;;;;;;5102050;27;20031;-74
2022/07/25 08:38:25;;;;;;;1999.90;999.90;;;24.60;99.90;;;;;;5123865;27;20099;-74
2022/07/25 08:40:53;;;;;;;1999.90;999.90;;;24.40;99.90;;;;;;5104789;27;20054;-74
2022/07/25 08:43:19;;;;;;;1999.90;999.90;;;24.20;99.90;;;;;;5116677;27;20398;-74
2022/07/25 08:45:47;;;;;;;1999.90;999.90;;;24.00;99.90;;;;;;5130672;27;20469;-74
2022/07/25 08:48:15;;;;;;;1999.90;999.90;;;23.90;99.90;;;;;;5123650;27;20520;-74
2022/07/25 08:50:41;;;;;;;1999.90;999.90;;;23.80;99.90;;;;;;5107806;27;20512;-74
2022/07/25 08:53:07;;;;;;;1999.90;999.90;;;23.80;99.90;;;;;;5123595;27;20391;-74
2022/07/25 08:55:33;;;;;;;1999.90;999.90;;;23.70;99.90;;;;;;5115769;27;20444;-74
2022/07/25 08:57:59;;;;;;;1999.90;999.90;;;23.70;99.90;;;;;;5124524;27;20051;-74
2022/07/25 09:00:30;;;;;;;1999.90;999.90;;;23.80;99.90;;;;;;5106323;27;20038;-74
2022/07/25 09:03:02;;;;;;;1999.90;999.90;;;23.90;99.90;;;;;;5122815;27;20132;-75
2022/07/25 09:05:30;;;;;;;1999.90;999.90;;;24.40;99.90;;;;;;5117626;27;20039;-75
2022/07/25 09:08:04;;;;;;;1999.90;999.90;;;24.70;99.90;;;;;;5121195;27;20047;-75
2022/07/25 09:10:30;;;;;;;1999.90;999.90;;;25.00;99.90;;;;;;5106952;27;20079;-75
2022/07/25 09:13:01;;;;;;;1999.90;999.90;;;25.00;99.90;;;;;;5120496;27;20039;-75
2022/07/25 09:15:29;;;;;;;1999.90;999.90;;;24.90;99.40;;;;;;5106555;27;20085;-75
2022/07/25 09:18:00;;;;;;;1999.90;999.90;;;24.70;99.80;;;;;;5101382;27;20039;-75
2022/07/25 09:20:46;;;;;;;1999.90;999.90;;;24.40;99.90;;;;;;5111902;27;20042;-75
2022/07/25 09:23:34;;;;;;;1999.90;999.90;;;24.20;99.90;;;;;;5079443;27;20415;-75
2022/07/25 09:26:07;;;;;;;1999.90;999.90;;;24.30;99.90;;;;;;5110579;27;20043;-74
2022/07/25 09:28:59;;;;;;;1999.90;999.90;;;24.50;99.90;;;;;;5089836;27;20426;-75
2022/07/25 09:31:31;;;;;;;1999.90;999.90;;;24.90;99.90;;;;;;5090139;27;20043;-75
2022/07/25 09:33:59;;;;;;;1999.90;999.90;;;25.00;99.90;;;;;;5092591;27;20383;-74
2022/07/25 09:36:25;;;;;;;1999.90;999.90;;;25.00;99.20;;;;;;5103736;27;20118;-75
2022/07/25 09:38:55;;;;;;;1999.90;999.90;;;25.10;99.00;;;;;;5088698;28;20582;-74
2022/07/25 09:41:21;;;;;;;1999.90;999.90;;;25.00;98.80;;;;;;5111905;27;20066;-75
2022/07/25 09:43:47;;;;;;;1999.90;999.90;;;25.10;99.00;;;;;;5086967;27;20074;-75
2022/07/25 09:46:12;;;;;;;1999.90;999.90;;;25.30;99.00;;;;;;5108699;27;20081;-75
2022/07/25 09:48:42;;;;;;;1999.90;999.90;;;25.40;98.60;;;;;;5090059;27;20044;-75
2022/07/25 09:51:08;;;;;;;1999.90;999.90;;;25.40;98.40;;;;;;5095845;27;20047;-75
2022/07/25 09:53:34;;;;;;;1999.90;999.90;;;25.60;97.20;;;;;;5095290;27;20031;-73
2022/07/25 09:55:59;;;;;;;1999.90;999.90;;;25.60;97.40;;;;;;5109277;27;20063;-75
2022/07/25 09:58:26;;;;;;;1999.90;999.90;;;25.30;96.60;;;;;;5095331;27;20039;-75
2022/07/25 10:01:03;;;;;;;1999.90;999.90;;;25.00;97.00;;;;;;5108171;27;20043;-74
2022/07/25 10:03:47;;;;;;;1999.90;999.90;;;24.70;97.00;;;;;;5085789;27;20058;-74
2022/07/25 10:06:38;;;;;;;1999.90;999.90;;;24.50;98.10;;;;;;5112169;27;20439;-75
2022/07/25 10:09:13;;;;;;;1999.90;999.90;;;24.40;98.80;;;;;;5095033;27;20051;-74
2022/07/25 10:11:39;;;;;;;1999.90;999.90;;;24.40;99.10;;;;;;5090039;27;20398;-73
2022/07/25 10:14:13;;;;;;;1999.90;999.90;;;24.40;98.70;;;;;;5111721;27;20027;-72
2022/07/25 10:16:46;;;;;;;1999.90;999.90;;;24.10;98.80;;;;;;5103202;27;20131;-75
2022/07/25 10:19:11;;;;;;;1999.90;999.90;;;23.90;99.70;;;;;;5104173;27;20179;-74
2022/07/25 10:21:37;;;;;;;1999.90;999.90;;;23.70;99.90;;;;;;5110871;27;20049;-74
2022/07/25 10:24:05;;;;;;;1999.90;999.90;;;23.60;99.90;;;;;;5111927;27;20126;-75
2022/07/25 10:26:35;;;;;;;1999.90;999.90;;;23.50;99.90;;;;;;5093182;27;20045;-74
2022/07/25 10:29:06;;;;;;;1999.90;999.90;;;23.40;99.90;;;;;;5094502;27;20047;-74
2022/07/25 10:31:31;;;;;;;1999.90;999.90;;;23.30;99.90;;;;;;5104400;27;20517;-73
2022/07/25 10:34:01;;;;;;;1999.90;999.90;;;23.10;99.90;;;;;;5114690;27;20074;-74
2022/07/25 10:36:41;;;;;;;1999.90;999.90;;;23.00;99.90;;;;;;5112802;27;20035;-74
2022/07/25 10:39:09;;;;;;;1999.90;999.90;;;22.80;99.90;;;;;;5097526;27;20415;-75
2022/07/25 10:41:53;;;;;;;1999.90;999.90;;;22.80;99.90;;;;;;5105093;27;20057;-75
2022/07/25 10:44:19;;;;;;;1999.90;999.90;;;22.80;99.90;;;;;;5116931;27;20067;-75
2022/07/25 10:46:46;;;;;;;1999.90;999.90;;;23.00;99.90;;;;;;5110180;27;20131;-75
2022/07/25 10:49:20;;;;;;;1999.90;999.90;;;23.10;99.90;;;;;;5108431;27;20059;-74
2022/07/25 10:52:02;;;;;;;1999.90;999.90;;;23.30;99.90;;;;;;5111942;28;20065;-74
2022/07/25 10:54:34;;;;;;;1999.90;999.90;;;23.50;99.90;;;;;;5094411;27;20125;-74
2022/07/25 10:57:00;;;;;;;1999.90;999.90;;;24.00;99.90;;;;;;5105744;28;20069;-75
2022/07/25 10:59:35;;;;;;;1999.90;999.90;;;24.30;99.90;;;;;;5092490;27;20035;-74
2022/07/25 11:02:05;;;;;;;1999.90;999.90;;;24.30;99.90;;;;;;5085276;27;20039;-74
2022/07/25 11:04:31;;;;;;;1999.90;999.90;;;24.20;99.90;;;;;;5109880;27;20047;-75
2022/07/25 11:07:06;;;;;;;1999.90;999.90;;;24.10;99.90;;;;;;5094330;27;20035;-74
2022/07/25 11:09:33;;;;;;;1999.90;999.90;;;24.10;99.90;;;;;;5109610;27;20035;-74
2022/07/25 11:11:59;;;;;;;1999.90;999.90;;;23.90;99.90;;;;;;5084701;28;20043;-73
2022/07/25 11:14:32;;;;;;;1999.90;999.90;;;23.80;99.90;;;;;;5093625;27;20043;-75
2022/07/25 11:17:21;;;;;;;1999.90;999.90;;;23.80;99.90;;;;;;5105152;28;20070;-75
2022/07/25 11:20:02;;;;;;;1999.90;999.90;;;23.90;99.90;;;;;;5109340;27;20106;-75
2022/07/25 11:22:29;;;;;;;1999.90;999.90;;;24.10;99.90;;;;;;5094220;28;20036;-75
2022/07/25 11:24:56;;;;;;;1999.90;999.90;;;24.30;99.90;;;;;;5108912;28;20140;-75
2022/07/25 11:27:32;;;;;;;1999.90;999.90;;;24.60;99.90;;;;;;5108247;28;20054;-75
2022/07/25 11:30:16;;;;;;;1999.90;999.90;;;25.10;99.90;;;;;;5098994;28;20043;-75
2022/07/25 11:32:44;;;;;;;1999.90;999.90;;;25.30;99.90;;;;;;5106491;28;20432;-75
2022/07/25 11:35:11;;;;;;;1999.90;999.90;;;25.20;99.90;;;;;;5088856;28;20087;-75
2022/07/25 11:37:40;;;;;;;1999.90;999.90;;;24.80;99.90;;;;;;5103753;28;20096;-75
2022/07/25 11:40:07;;;;;;;1999.90;999.90;;;24.40;99.90;;;;;;5086417;28;20064;-73
2022/07/25 11:42:51;;;;;;;1999.90;999.90;;;24.10;99.90;;;;;;5089207;28;20110;-74
2022/07/25 11:45:25;;;;;;;1999.90;999.90;;;23.90;99.90;;;;;;5102310;27;20035;-75
2022/07/25 11:48:12;;;;;;;1999.90;999.90;;;23.80;99.90;;;;;;5094772;28;20386;-75
2022/07/25 11:50:43;;;;;;;1999.90;999.90;;;23.60;99.90;;;;;;5091110;27;20058;-72
2022/07/25 11:53:11;;;;;;;1999.90;999.90;;;23.60;99.90;;;;;;5083065;28;20046;-73
2022/07/25 11:55:41;;;;;;;1999.90;999.90;;;23.60;99.90;;;;;;5103288;27;20035;-75
2022/07/25 11:58:08;;;;;;;1999.90;999.90;;;23.80;99.90;;;;;;5093479;28;20043;-74
2022/07/25 12:00:40;;;;;;;1999.90;999.90;;;24.00;99.90;;;;;;5099019;27;20035;-75
2022/07/25 12:03:13;;;;;;;1999.90;999.90;;;24.10;99.90;;;;;;5090474;28;20827;-74